createdAt,value
2017-12-10T00:01:05.687Z,2.78
2017-12-10T00:03:33.219Z,2.55
2017-12-10T00:06:00.748Z,2.57
2017-12-10T00:08:28.277Z,2.61
2017-12-10T00:10:55.878Z,2.58
2017-12-10T00:13:23.401Z,2.51
2017-12-10T00:15:50.981Z,2.51
2017-12-10T00:18:18.512Z,2.55
2017-12-10T00:20:46.043Z,2.53
2017-12-10T00:23:13.564Z,2.46
2017-12-10T00:25:41.092Z,2.47
2017-12-10T00:28:08.646Z,2.47
2017-12-10T00:30:36.240Z,2.54
2017-12-10T00:33:04.583Z,2.51
2017-12-10T00:35:32.176Z,2.48
2017-12-10T00:37:59.696Z,2.47
2017-12-10T00:40:27.210Z,2.64
2017-12-10T00:42:54.726Z,2.50
2017-12-10T00:45:22.255Z,2.48
2017-12-10T00:47:49.942Z,2.40
2017-12-10T00:50:17.488Z,2.41
2017-12-10T00:52:45.171Z,2.23
2017-12-10T00:55:13.069Z,2.25
2017-12-10T00:57:40.604Z,2.25
2017-12-10T01:00:08.137Z,2.26
2017-12-10T01:02:35.659Z,2.26
2017-12-10T01:05:03.185Z,2.27
2017-12-10T01:07:30.713Z,2.30
2017-12-10T01:09:58.259Z,2.26
2017-12-10T01:12:25.902Z,2.29
2017-12-10T01:14:53.420Z,2.23
2017-12-10T01:17:20.954Z,2.26
2017-12-10T01:19:48.480Z,2.25
2017-12-10T01:22:16.035Z,2.20
2017-12-10T01:24:43.559Z,2.29
2017-12-10T01:27:11.085Z,2.26
2017-12-10T01:29:38.716Z,2.12
2017-12-10T01:32:06.246Z,2.17
2017-12-10T01:34:33.769Z,2.30
2017-12-10T01:37:01.291Z,2.22
2017-12-10T01:39:28.817Z,2.29
2017-12-10T01:41:56.341Z,2.20
2017-12-10T01:44:23.854Z,2.20
2017-12-10T01:46:51.424Z,2.25
2017-12-10T01:49:18.950Z,2.27
2017-12-10T01:51:46.480Z,2.21
2017-12-10T01:54:14.016Z,2.20
2017-12-10T01:56:41.562Z,2.17
2017-12-10T01:59:09.095Z,2.16
2017-12-10T02:01:36.674Z,2.13
2017-12-10T02:04:04.204Z,2.05
2017-12-10T02:06:31.734Z,2.05
2017-12-10T02:08:59.268Z,2.07
2017-12-10T02:11:26.785Z,1.95
2017-12-10T02:13:54.310Z,1.98
2017-12-10T02:16:21.841Z,1.99
2017-12-10T02:18:49.371Z,1.95
2017-12-10T02:21:16.958Z,2.01
2017-12-10T02:23:44.476Z,1.94
2017-12-10T02:26:12.002Z,2.01
2017-12-10T02:28:39.514Z,1.92
2017-12-10T02:31:07.037Z,1.97
2017-12-10T02:33:34.584Z,1.90
2017-12-10T02:36:02.106Z,1.92
2017-12-10T02:38:29.617Z,1.93
2017-12-10T02:40:57.136Z,1.93
2017-12-10T02:43:24.684Z,1.87
2017-12-10T02:45:52.212Z,1.84
2017-12-10T02:48:19.743Z,1.79
2017-12-10T02:50:47.262Z,1.83
2017-12-10T02:53:14.774Z,1.78
2017-12-10T02:55:42.310Z,1.75
2017-12-10T02:58:09.822Z,1.72
2017-12-10T03:00:37.338Z,1.70
2017-12-10T03:03:04.866Z,1.67
2017-12-10T03:05:32.412Z,1.59
2017-12-10T03:07:59.944Z,1.59
2017-12-10T03:10:28.364Z,1.54
2017-12-10T03:12:55.895Z,1.56
2017-12-10T03:15:23.423Z,1.51
2017-12-10T03:17:51.055Z,1.52
2017-12-10T03:20:18.592Z,1.51
2017-12-10T03:22:46.103Z,1.47
2017-12-10T03:25:13.770Z,1.53
2017-12-10T03:27:41.268Z,1.54
2017-12-10T03:30:08.853Z,1.48
2017-12-10T03:32:36.403Z,1.44
2017-12-10T03:35:03.972Z,1.47
2017-12-10T03:37:31.513Z,1.39
2017-12-10T03:39:59.017Z,1.44
2017-12-10T03:42:26.542Z,1.39
2017-12-10T03:44:54.062Z,1.39
2017-12-10T03:47:21.585Z,1.39
2017-12-10T03:49:49.099Z,1.39
2017-12-10T03:52:16.623Z,1.39
2017-12-10T03:54:44.130Z,1.32
2017-12-10T03:57:11.641Z,1.33
2017-12-10T03:59:39.162Z,1.27
2017-12-10T04:02:06.668Z,1.25
2017-12-10T04:04:34.206Z,1.18
2017-12-10T04:07:01.723Z,1.18
2017-12-10T04:09:29.232Z,1.11
2017-12-10T04:11:56.845Z,1.15
2017-12-10T04:14:24.355Z,1.09
2017-12-10T04:16:51.870Z,1.10
2017-12-10T04:19:19.381Z,1.07
2017-12-10T04:21:46.901Z,1.05
2017-12-10T04:24:14.420Z,1.04
2017-12-10T04:26:41.931Z,1.03
2017-12-10T04:29:09.446Z,1.04
2017-12-10T04:31:36.960Z,1.03
2017-12-10T04:34:04.592Z,1.05
2017-12-10T04:36:32.111Z,1.04
2017-12-10T04:38:59.624Z,1.05
2017-12-10T04:41:27.130Z,1.11
2017-12-10T04:43:54.647Z,1.13
2017-12-10T04:46:22.285Z,1.12
2017-12-10T04:48:49.848Z,1.12
2017-12-10T04:51:17.372Z,1.07
2017-12-10T04:53:44.896Z,1.09
2017-12-10T04:56:12.410Z,1.06
2017-12-10T04:58:39.917Z,1.05
2017-12-10T05:01:07.441Z,1.02
2017-12-10T05:03:34.942Z,1.05
2017-12-10T05:06:02.462Z,0.97
2017-12-10T05:08:29.968Z,1.01
2017-12-10T05:10:57.480Z,1.03
2017-12-10T05:13:24.989Z,0.99
2017-12-10T05:15:52.510Z,0.99
2017-12-10T05:18:20.026Z,1.03
2017-12-10T05:20:47.533Z,1.05
2017-12-10T05:23:15.041Z,1.05
2017-12-10T05:25:42.566Z,1.01
2017-12-10T05:28:10.098Z,1.02
2017-12-10T05:30:37.654Z,1.01
2017-12-10T05:33:05.165Z,1.00
2017-12-10T05:35:32.682Z,1.05
2017-12-10T05:38:00.205Z,0.97
2017-12-10T05:40:27.719Z,1.00
2017-12-10T05:42:55.238Z,1.00
2017-12-10T05:45:22.781Z,0.91
2017-12-10T05:47:50.292Z,0.95
2017-12-10T05:50:17.812Z,0.96
2017-12-10T05:52:45.313Z,0.95
2017-12-10T05:55:12.843Z,0.96
2017-12-10T05:57:40.356Z,1.03
2017-12-10T06:00:07.864Z,1.00
2017-12-10T06:02:35.377Z,1.04
2017-12-10T06:05:02.893Z,1.04
2017-12-10T06:07:30.411Z,1.05
2017-12-10T06:09:57.920Z,1.10
2017-12-10T06:12:25.558Z,1.08
2017-12-10T06:14:53.113Z,1.07
2017-12-10T06:17:20.613Z,1.05
2017-12-10T06:19:48.244Z,1.02
2017-12-10T06:22:15.775Z,1.02
2017-12-10T06:24:43.290Z,1.00
2017-12-10T06:27:10.802Z,0.97
2017-12-10T06:29:38.309Z,1.00
2017-12-10T06:32:05.814Z,0.97
2017-12-10T06:34:33.390Z,0.96
2017-12-10T06:37:00.892Z,0.91
2017-12-10T06:39:28.397Z,0.91
2017-12-10T06:41:55.902Z,0.92
2017-12-10T06:44:23.413Z,0.86
2017-12-10T06:46:50.929Z,0.87
2017-12-10T06:49:18.542Z,0.92
2017-12-10T06:51:50.508Z,0.92
2017-12-10T06:54:18.085Z,0.92
2017-12-10T06:56:45.605Z,0.90
2017-12-10T06:59:13.121Z,0.89
2017-12-10T07:01:40.636Z,0.95
2017-12-10T07:04:08.213Z,0.90
2017-12-10T07:06:35.723Z,0.89
2017-12-10T07:09:03.253Z,0.91
2017-12-10T07:11:30.765Z,0.88
2017-12-10T07:13:58.270Z,0.94
2017-12-10T07:16:25.778Z,0.92
2017-12-10T07:18:53.295Z,0.93
2017-12-10T07:21:20.804Z,0.95
2017-12-10T07:23:48.309Z,1.03
2017-12-10T07:26:15.817Z,0.96
2017-12-10T07:28:43.339Z,0.97
2017-12-10T07:31:10.841Z,1.01
2017-12-10T07:33:38.340Z,1.00
2017-12-10T07:36:05.846Z,1.05
2017-12-10T07:38:33.360Z,1.13
2017-12-10T07:41:00.985Z,1.03
2017-12-10T07:43:28.490Z,1.09
2017-12-10T07:45:56.004Z,1.18
2017-12-10T07:48:23.518Z,1.26
2017-12-10T07:50:51.018Z,1.26
2017-12-10T07:53:18.526Z,1.15
2017-12-10T07:55:46.045Z,1.14
2017-12-10T07:58:13.566Z,1.12
2017-12-10T08:00:41.085Z,1.21
2017-12-10T08:03:08.595Z,1.23
2017-12-10T08:05:36.115Z,1.30
2017-12-10T08:08:03.741Z,1.33
2017-12-10T08:10:31.246Z,1.48
2017-12-10T08:12:58.745Z,1.43
2017-12-10T08:15:26.245Z,1.44
2017-12-10T08:17:53.760Z,1.56
2017-12-10T08:20:21.269Z,1.29
2017-12-10T08:22:48.795Z,1.52
2017-12-10T08:25:16.326Z,1.70
2017-12-10T08:27:43.838Z,1.93
2017-12-10T08:30:11.343Z,1.77
2017-12-10T08:32:38.854Z,1.76
2017-12-10T08:35:06.483Z,2.05
2017-12-10T08:37:34.000Z,2.08
2017-12-10T08:40:01.509Z,2.40
2017-12-10T08:42:29.029Z,2.52
2017-12-10T08:44:56.542Z,2.37
2017-12-10T08:47:24.060Z,2.65
2017-12-10T08:49:51.585Z,2.88
2017-12-10T08:52:19.346Z,2.81
2017-12-10T08:54:46.856Z,2.79
2017-12-10T08:57:14.371Z,2.74
2017-12-10T08:59:41.899Z,2.74
2017-12-10T09:02:09.408Z,2.62
2017-12-10T09:04:36.910Z,2.44
2017-12-10T09:07:04.438Z,2.62
2017-12-10T09:09:31.947Z,2.63
2017-12-10T09:11:59.470Z,2.66
2017-12-10T09:14:26.980Z,2.85
2017-12-10T09:16:54.514Z,3.34
2017-12-10T09:19:22.013Z,3.48
2017-12-10T09:21:49.523Z,3.77
2017-12-10T09:24:17.044Z,4.17
2017-12-10T09:26:44.624Z,4.46
2017-12-10T09:29:12.137Z,4.56
2017-12-10T09:31:39.659Z,4.88
2017-12-10T09:34:07.166Z,4.96
2017-12-10T09:36:34.673Z,4.93
2017-12-10T09:39:02.186Z,4.93
2017-12-10T09:41:29.716Z,4.92
2017-12-10T09:43:57.232Z,4.45
2017-12-10T09:46:24.739Z,5.35
2017-12-10T09:48:52.254Z,4.73
2017-12-10T09:51:19.771Z,4.82
2017-12-10T11:15:44.391Z,2.19
2017-12-10T11:18:11.947Z,2.08
2017-12-10T11:20:40.674Z,2.02
2017-12-10T11:23:08.181Z,2.16
2017-12-10T11:25:35.744Z,2.20
2017-12-10T11:28:03.402Z,2.31
2017-12-10T11:30:30.933Z,2.04
2017-12-10T11:32:58.459Z,2.20
2017-12-10T11:35:26.009Z,2.01
2017-12-10T11:37:53.523Z,1.84
2017-12-10T11:40:21.042Z,1.96
2017-12-10T11:42:48.669Z,1.84
2017-12-10T11:45:16.339Z,1.82
2017-12-10T11:47:43.862Z,1.68
2017-12-10T11:50:11.378Z,1.63
2017-12-10T11:52:38.887Z,1.71
2017-12-10T11:55:06.396Z,1.59
2017-12-10T11:57:33.930Z,1.75
2017-12-10T12:00:01.460Z,1.83
2017-12-10T12:02:29.019Z,1.80
2017-12-10T12:04:56.544Z,1.87
2017-12-10T12:07:24.174Z,1.80
2017-12-10T12:09:51.697Z,1.90
2017-12-10T12:12:19.270Z,1.75
2017-12-10T12:14:46.830Z,1.77
2017-12-10T12:17:14.338Z,1.78
2017-12-10T12:19:41.867Z,2.15
2017-12-10T12:22:09.373Z,1.95
2017-12-10T12:24:36.880Z,2.17
2017-12-10T12:27:04.425Z,1.97
2017-12-10T12:29:31.980Z,2.09
2017-12-10T12:31:59.529Z,2.04
2017-12-10T12:34:27.045Z,2.06
2017-12-10T12:36:54.560Z,1.95
2017-12-10T12:39:22.064Z,1.96
2017-12-10T12:41:49.566Z,1.86
2017-12-10T12:44:17.108Z,1.97
2017-12-10T12:46:44.697Z,1.91
2017-12-10T12:49:12.252Z,2.01
2017-12-10T12:51:39.762Z,1.98
2017-12-10T12:54:07.281Z,2.02
2017-12-10T12:56:34.792Z,2.13
2017-12-10T12:59:02.321Z,2.32
2017-12-10T13:04:09.914Z,1.90
2017-12-10T13:06:37.426Z,1.78
2017-12-10T13:09:04.939Z,1.77
2017-12-10T13:11:32.477Z,1.74
2017-12-10T13:13:59.982Z,1.64
2017-12-10T13:16:27.586Z,1.66
2017-12-10T13:18:55.102Z,1.55
2017-12-10T13:21:22.650Z,1.45
2017-12-10T13:23:50.165Z,1.45
2017-12-10T13:26:17.739Z,1.41
2017-12-10T13:28:45.305Z,1.71
2017-12-10T13:31:12.819Z,1.75
2017-12-10T13:33:41.005Z,1.50
2017-12-10T13:36:08.513Z,1.39
2017-12-10T13:38:36.022Z,1.42
2017-12-10T13:41:03.535Z,1.37
2017-12-10T13:43:31.039Z,1.32
2017-12-10T13:45:58.548Z,1.34
2017-12-10T13:48:26.046Z,1.36
2017-12-10T13:50:53.549Z,1.27
2017-12-10T13:53:21.061Z,1.30
2017-12-10T13:55:48.567Z,1.31
2017-12-10T13:58:16.087Z,1.27
2017-12-10T14:00:43.603Z,1.24
2017-12-10T14:03:11.106Z,1.18
2017-12-10T14:05:38.612Z,1.18
2017-12-10T14:08:06.125Z,1.19
2017-12-10T14:10:33.629Z,1.14
2017-12-10T14:13:01.131Z,1.10
2017-12-10T14:15:28.658Z,1.16
2017-12-10T14:17:56.177Z,1.14
2017-12-10T14:20:23.697Z,1.13
2017-12-10T14:22:51.198Z,1.10
2017-12-10T14:25:18.692Z,1.11
2017-12-10T14:27:46.196Z,1.10
2017-12-10T14:30:13.698Z,1.10
2017-12-10T14:32:41.206Z,1.07
2017-12-10T14:35:08.810Z,1.08
2017-12-10T14:37:36.318Z,1.06
2017-12-10T14:40:03.831Z,1.04
2017-12-10T14:42:31.346Z,1.07
2017-12-10T14:44:58.853Z,1.05
2017-12-10T14:47:26.349Z,1.07
2017-12-10T14:49:53.858Z,1.05
2017-12-10T14:52:21.358Z,1.06
2017-12-10T14:54:48.874Z,1.06
2017-12-10T14:57:16.371Z,1.03
2017-12-10T14:59:43.891Z,1.03
2017-12-10T15:02:11.396Z,1.02
2017-12-10T15:04:38.902Z,1.03
2017-12-10T15:07:06.410Z,1.00
2017-12-10T15:09:33.908Z,1.03
2017-12-10T15:12:01.423Z,1.02
2017-12-10T15:14:28.933Z,1.02
2017-12-10T15:16:56.438Z,0.99
2017-12-10T15:19:23.947Z,1.02
2017-12-10T15:21:51.459Z,0.97
2017-12-10T15:24:18.980Z,0.99
2017-12-10T15:26:46.483Z,1.01
2017-12-10T15:29:13.991Z,0.95
2017-12-10T15:31:41.502Z,0.96
2017-12-10T15:34:09.015Z,0.96
2017-12-10T15:36:36.517Z,0.91
2017-12-10T15:39:04.032Z,0.93
2017-12-10T15:41:31.564Z,0.94
2017-12-10T15:43:59.066Z,0.95
2017-12-10T15:46:26.582Z,0.92
2017-12-10T15:48:54.112Z,0.93
2017-12-10T15:51:21.655Z,0.95
2017-12-10T15:53:49.158Z,0.89
2017-12-10T15:56:16.661Z,0.91
2017-12-10T15:58:44.170Z,0.90
2017-12-10T16:01:11.678Z,0.95
2017-12-10T16:03:39.180Z,0.89
2017-12-10T16:06:06.684Z,0.92
2017-12-10T16:08:34.181Z,0.95
2017-12-10T16:11:01.711Z,0.92
2017-12-10T16:13:29.264Z,0.98
2017-12-10T16:15:56.794Z,0.98
2017-12-10T16:18:24.305Z,0.98
2017-12-10T16:20:51.826Z,0.96
2017-12-10T16:23:19.342Z,0.97
2017-12-10T16:25:46.855Z,0.96
2017-12-10T16:28:14.386Z,0.96
2017-12-10T16:30:41.902Z,0.95
2017-12-10T16:33:09.412Z,1.02
2017-12-10T16:35:36.919Z,1.02
2017-12-10T16:38:04.422Z,1.04
2017-12-10T16:40:31.930Z,0.94
2017-12-10T16:42:59.444Z,0.97
2017-12-10T16:45:26.961Z,0.89
2017-12-10T16:47:54.468Z,0.82
2017-12-10T16:50:21.977Z,0.74
2017-12-10T16:52:49.489Z,0.59
2017-12-10T16:55:17.014Z,0.48
2017-12-10T16:57:44.529Z,0.56
2017-12-10T17:00:12.040Z,0.35
2017-12-10T17:02:39.559Z,0.28
2017-12-10T17:05:07.057Z,0.14
2017-12-10T17:07:34.568Z,0.10
2017-12-10T17:10:02.079Z,-0.09
2017-12-10T17:12:29.602Z,-0.01
2017-12-10T17:14:57.122Z,-0.28
2017-12-10T17:17:24.634Z,-0.31
2017-12-10T17:19:52.139Z,-0.47
2017-12-10T17:22:19.716Z,-0.37
2017-12-10T17:24:47.234Z,-0.52
2017-12-10T17:27:14.786Z,-0.43
2017-12-10T17:29:42.311Z,-0.41
2017-12-10T17:32:09.817Z,-0.37
2017-12-10T17:34:37.334Z,-0.53
2017-12-10T17:37:04.855Z,-0.50
2017-12-10T17:39:32.392Z,-0.59
2017-12-10T17:41:59.909Z,-0.53
2017-12-10T17:44:27.416Z,-0.55
2017-12-10T17:46:54.930Z,-0.54
2017-12-10T17:49:22.437Z,-0.48
2017-12-10T17:51:49.952Z,-0.63
2017-12-10T17:54:17.472Z,-0.57
2017-12-10T17:56:45.010Z,-0.58
2017-12-10T17:59:12.524Z,-0.58
2017-12-10T18:01:40.048Z,-0.72
2017-12-10T18:04:07.557Z,-0.68
2017-12-10T18:06:35.058Z,-0.63
2017-12-10T18:09:02.570Z,-0.69
2017-12-10T18:11:30.079Z,-0.72
2017-12-10T18:13:57.588Z,-0.69
2017-12-10T18:16:25.093Z,-0.64
2017-12-10T18:18:52.606Z,-0.67
2017-12-10T18:21:20.128Z,-0.75
2017-12-10T18:23:47.642Z,-0.70
2017-12-10T18:26:15.157Z,-0.66
2017-12-10T18:28:42.678Z,-0.63
2017-12-10T18:31:10.197Z,-0.62
2017-12-10T18:33:37.791Z,-0.71
2017-12-10T18:36:05.305Z,-0.65
2017-12-10T18:38:32.814Z,-0.62
2017-12-10T18:41:00.329Z,-0.58
2017-12-10T18:43:27.844Z,-0.64
2017-12-10T18:45:55.358Z,-0.47
2017-12-10T18:48:22.866Z,-0.43
2017-12-10T18:50:50.377Z,-0.48
2017-12-10T18:53:18.174Z,-0.47
2017-12-10T18:55:45.685Z,-0.44
2017-12-10T18:58:14.078Z,-0.46
2017-12-10T19:00:41.584Z,-0.47
2017-12-10T19:03:09.263Z,-0.43
2017-12-10T19:05:36.787Z,-0.43
2017-12-10T19:08:04.314Z,-0.44
2017-12-10T19:10:31.838Z,-0.43
2017-12-10T19:12:59.354Z,-0.42
2017-12-10T19:15:26.877Z,-0.42
2017-12-10T19:17:54.923Z,-0.41
2017-12-10T19:20:22.443Z,-0.39
2017-12-10T19:22:49.965Z,-0.38
2017-12-10T19:25:17.475Z,-0.36
2017-12-10T19:27:44.991Z,-0.32
2017-12-10T19:30:12.741Z,-0.28
2017-12-10T19:32:40.258Z,-0.27
2017-12-10T19:35:07.773Z,-0.23
2017-12-10T19:37:35.278Z,-0.26
2017-12-10T19:40:02.794Z,-0.27
2017-12-10T19:42:30.306Z,-0.25
2017-12-10T19:44:57.816Z,-0.24
2017-12-10T19:47:25.628Z,-0.29
2017-12-10T19:49:53.146Z,-0.27
2017-12-10T19:52:20.661Z,-0.22
2017-12-10T19:54:48.174Z,-0.23
2017-12-10T19:57:15.697Z,-0.25
2017-12-10T19:59:43.210Z,-0.27
2017-12-10T20:02:11.385Z,-0.30
2017-12-10T20:04:38.902Z,-0.19
2017-12-10T20:07:06.417Z,-0.21
2017-12-10T20:09:33.920Z,-0.19
2017-12-10T20:12:01.435Z,-0.19
2017-12-10T20:17:21.197Z,-0.15
2017-12-10T20:19:48.724Z,-0.26
2017-12-10T20:22:16.241Z,-0.23
2017-12-10T20:24:43.889Z,-0.26
2017-12-10T20:27:11.469Z,-0.26
2017-12-10T20:29:38.998Z,-0.23
2017-12-10T20:32:06.513Z,-0.25
2017-12-10T20:34:34.030Z,-0.22
2017-12-10T20:37:01.554Z,-0.31
2017-12-10T20:39:29.074Z,-0.24
2017-12-10T20:41:56.594Z,-0.20
2017-12-10T20:44:24.214Z,-0.21
2017-12-10T20:46:51.755Z,-0.18
2017-12-10T20:49:19.274Z,-0.20
2017-12-10T20:51:46.793Z,-0.19
2017-12-10T20:54:14.315Z,-0.19
2017-12-10T20:56:41.826Z,-0.15
2017-12-10T20:59:09.353Z,-0.11
2017-12-10T21:01:36.866Z,-0.17
2017-12-10T21:04:04.391Z,-0.14
2017-12-10T21:06:31.915Z,-0.13
2017-12-10T21:08:59.438Z,-0.13
2017-12-10T21:11:26.962Z,-0.10
2017-12-10T21:13:54.489Z,-0.09
2017-12-10T21:16:22.013Z,-0.06
2017-12-10T21:18:49.533Z,-0.07
2017-12-10T21:21:17.049Z,-0.08
2017-12-10T21:23:44.582Z,-0.07
2017-12-10T21:26:12.114Z,-0.04
2017-12-10T21:28:39.640Z,-0.02
2017-12-10T21:31:07.165Z,-0.01
2017-12-10T21:33:34.686Z,-0.01
2017-12-10T21:36:02.195Z,0.03
2017-12-10T21:38:29.704Z,0.02
2017-12-10T21:40:57.206Z,0.04
2017-12-10T21:43:24.749Z,0.04
2017-12-10T21:45:52.281Z,0.11
2017-12-10T21:48:19.812Z,0.12
2017-12-10T21:50:47.329Z,0.15
2017-12-10T21:53:14.885Z,0.19
2017-12-10T21:55:42.497Z,0.24
2017-12-10T21:58:10.023Z,0.22
2017-12-10T22:00:37.559Z,0.29
2017-12-10T22:03:05.057Z,0.27
2017-12-10T22:05:32.593Z,0.29
2017-12-10T22:08:00.122Z,0.34
2017-12-10T22:10:27.640Z,0.36
2017-12-10T22:12:55.150Z,0.38
2017-12-10T22:15:22.668Z,0.44
2017-12-10T22:17:50.180Z,0.48
2017-12-10T22:20:17.715Z,0.54
2017-12-10T22:22:45.231Z,0.58
2017-12-10T22:25:12.752Z,0.59
2017-12-10T22:27:40.264Z,0.59
2017-12-10T22:30:07.779Z,0.60
2017-12-10T22:32:35.293Z,0.63
2017-12-10T22:35:02.816Z,0.63
2017-12-10T22:37:30.333Z,0.65
2017-12-10T22:39:57.840Z,0.67
2017-12-10T22:42:25.386Z,0.68
2017-12-10T22:44:52.901Z,0.74
2017-12-10T22:47:20.432Z,0.79
2017-12-10T22:49:47.949Z,0.81
2017-12-10T22:52:15.488Z,0.82
2017-12-10T22:54:43.002Z,0.83
2017-12-10T22:57:10.513Z,0.85
2017-12-10T22:59:38.035Z,0.91
2017-12-10T23:02:05.558Z,0.94
2017-12-10T23:04:33.084Z,0.97
2017-12-10T23:07:00.590Z,1.00
2017-12-10T23:09:28.104Z,1.04
2017-12-10T23:11:55.613Z,1.05
2017-12-10T23:14:23.122Z,1.10
2017-12-10T23:16:50.640Z,1.13
2017-12-10T23:19:18.171Z,1.11
2017-12-10T23:21:45.690Z,1.13
2017-12-10T23:24:13.200Z,1.14
2017-12-10T23:26:40.708Z,1.14
2017-12-10T23:29:08.222Z,1.18
2017-12-10T23:31:35.738Z,1.19
2017-12-10T23:34:03.240Z,1.24
2017-12-10T23:36:30.754Z,1.28
2017-12-10T23:38:58.262Z,1.33
2017-12-10T23:41:25.766Z,1.36
2017-12-10T23:43:53.274Z,1.33
2017-12-10T23:46:20.791Z,1.33
2017-12-10T23:48:48.304Z,1.31
2017-12-10T23:51:15.827Z,1.31
2017-12-10T23:53:43.339Z,1.31
2017-12-10T23:56:10.853Z,1.29
2017-12-10T23:58:38.365Z,1.27
